sensor_id;sensor_type;location;lat;lon;timestamp;temperature;humidity
21001;DHT22;10658;50.920;12.238;2023-07-29T00:02:48;20.00;99.90
21001;DHT22;10658;50.920;12.238;2023-07-29T00:06:48;20.00;99.90
21001;DHT22;10658;50.920;12.238;2023-07-29T00:10:49;20.00;99.90
21001;DHT22;10658;50.920;12.238;2023-07-29T00:14:50;20.00;99.90
21001;DHT22;10658;50.920;12.238;2023-07-29T00:18:51;20.00;99.90
21001;DHT22;10658;50.920;12.238;2023-07-29T00:22:52;20.00;99.90
21001;DHT22;10658;50.920;12.238;2023-07-29T00:26:55;19.90;99.90
21001;DHT22;10658;50.920;12.238;2023-07-29T00:30:56;19.90;99.90
21001;DHT22;10658;50.920;12.238;2023-07-29T00:34:56;19.90;99.90
21001;DHT22;10658;50.920;12.238;2023-07-29T00:38:57;19.80;99.90
21001;DHT22;10658;50.920;12.238;2023-07-29T00:42:58;19.80;99.90
21001;DHT22;10658;50.920;12.238;2023-07-29T00:47:02;19.70;99.90
21001;DHT22;10658;50.920;12.238;2023-07-29T00:51:03;19.70;99.90
21001;DHT22;10658;50.920;12.238;2023-07-29T00:55:05;19.60;99.90
21001;DHT22;10658;50.920;12.238;2023-07-29T00:59:06;19.60;99.90
21001;DHT22;10658;50.920;12.238;2023-07-29T01:03:07;19.60;99.90
21001;DHT22;10658;50.920;12.238;2023-07-29T01:07:23;19.50;99.90
21001;DHT22;10658;50.920;12.238;2023-07-29T01:11:47;19.40;99.90
21001;DHT22;10658;50.920;12.238;2023-07-29T01:16:02;19.40;99.90
21001;DHT22;10658;50.920;12.238;2023-07-29T01:20:09;19.40;99.90
21001;DHT22;10658;50.920;12.238;2023-07-29T01:24:12;19.20;99.90
21001;DHT22;10658;50.920;12.238;2023-07-29T01:28:13;19.10;99.90
21001;DHT22;10658;50.920;12.238;2023-07-29T01:32:19;19.10;99.90
21001;DHT22;10658;50.920;12.238;2023-07-29T01:36:27;19.00;99.90
21001;DHT22;10658;50.920;12.238;2023-07-29T01:40:29;19.00;99.90
21001;DHT22;10658;50.920;12.238;2023-07-29T01:44:31;19.00;99.90
21001;DHT22;10658;50.920;12.238;2023-07-29T01:48:32;18.90;99.90
21001;DHT22;10658;50.920;12.238;2023-07-29T01:52:33;18.90;99.90
21001;DHT22;10658;50.920;12.238;2023-07-29T01:56:33;18.90;99.90
21001;DHT22;10658;50.920;12.238;2023-07-29T02:00:34;19.00;99.90
21001;DHT22;10658;50.920;12.238;2023-07-29T02:04:35;19.00;99.90
21001;DHT22;10658;50.920;12.238;2023-07-29T02:08:36;19.10;99.90
21001;DHT22;10658;50.920;12.238;2023-07-29T02:12:37;19.20;99.90
21001;DHT22;10658;50.920;12.238;2023-07-29T02:16:38;19.20;99.90
21001;DHT22;10658;50.920;12.238;2023-07-29T02:20:39;19.20;99.90
21001;DHT22;10658;50.920;12.238;2023-07-29T02:24:41;19.20;99.90
21001;DHT22;10658;50.920;12.238;2023-07-29T02:28:42;19.20;99.90
21001;DHT22;10658;50.920;12.238;2023-07-29T02:32:42;19.20;99.90
21001;DHT22;10658;50.920;12.238;2023-07-29T02:36:43;19.20;99.90
21001;DHT22;10658;50.920;12.238;2023-07-29T02:40:44;19.20;99.90
21001;DHT22;10658;50.920;12.238;2023-07-29T02:44:45;19.20;99.90
21001;DHT22;10658;50.920;12.238;2023-07-29T02:48:46;19.20;99.90
21001;DHT22;10658;50.920;12.238;2023-07-29T02:52:47;19.10;99.90
21001;DHT22;10658;50.920;12.238;2023-07-29T02:56:50;19.10;99.90
21001;DHT22;10658;50.920;12.238;2023-07-29T03:00:50;19.10;99.90
21001;DHT22;10658;50.920;12.238;2023-07-29T03:04:52;19.00;99.90
21001;DHT22;10658;50.920;12.238;2023-07-29T03:08:53;19.00;99.90
21001;DHT22;10658;50.920;12.238;2023-07-29T03:12:54;19.00;99.90
21001;DHT22;10658;50.920;12.238;2023-07-29T03:16:55;19.10;99.90
21001;DHT22;10658;50.920;12.238;2023-07-29T03:20:56;19.10;99.90
21001;DHT22;10658;50.920;12.238;2023-07-29T03:24:57;19.10;99.90
21001;DHT22;10658;50.920;12.238;2023-07-29T03:28:58;19.10;99.90
21001;DHT22;10658;50.920;12.238;2023-07-29T03:32:58;19.10;99.90
21001;DHT22;10658;50.920;12.238;2023-07-29T03:37:00;19.10;99.90
21001;DHT22;10658;50.920;12.238;2023-07-29T03:41:01;19.10;99.90
21001;DHT22;10658;50.920;12.238;2023-07-29T03:45:04;19.10;99.90
21001;DHT22;10658;50.920;12.238;2023-07-29T03:49:04;19.00;99.90
21001;DHT22;10658;50.920;12.238;2023-07-29T03:53:06;19.00;99.90
21001;DHT22;10658;50.920;12.238;2023-07-29T03:57:06;18.90;99.90
21001;DHT22;10658;50.920;12.238;2023-07-29T04:01:07;18.80;99.90
21001;DHT22;10658;50.920;12.238;2023-07-29T04:05:08;18.80;99.90
21001;DHT22;10658;50.920;12.238;2023-07-29T04:09:09;18.70;99.90
21001;DHT22;10658;50.920;12.238;2023-07-29T04:13:10;18.80;99.90
21001;DHT22;10658;50.920;12.238;2023-07-29T04:17:11;18.80;99.90
21001;DHT22;10658;50.920;12.238;2023-07-29T04:21:12;18.80;99.90
21001;DHT22;10658;50.920;12.238;2023-07-29T04:25:13;18.90;99.90
21001;DHT22;10658;50.920;12.238;2023-07-29T04:29:14;18.90;99.90
21001;DHT22;10658;50.920;12.238;2023-07-29T04:33:14;18.90;99.90
21001;DHT22;10658;50.920;12.238;2023-07-29T04:37:15;18.90;99.90
21001;DHT22;10658;50.920;12.238;2023-07-29T04:41:16;19.00;99.90
21001;DHT22;10658;50.920;12.238;2023-07-29T04:45:17;19.20;99.90
21001;DHT22;10658;50.920;12.238;2023-07-29T04:49:17;19.50;99.90
21001;DHT22;10658;50.920;12.238;2023-07-29T04:53:18;19.80;99.90
21001;DHT22;10658;50.920;12.238;2023-07-29T04:57:19;20.10;99.90
21001;DHT22;10658;50.920;12.238;2023-07-29T05:01:20;20.50;99.90
21001;DHT22;10658;50.920;12.238;2023-07-29T05:05:21;20.80;99.90
21001;DHT22;10658;50.920;12.238;2023-07-29T05:09:22;21.20;99.90
21001;DHT22;10658;50.920;12.238;2023-07-29T05:13:23;21.40;99.90
21001;DHT22;10658;50.920;12.238;2023-07-29T05:17:24;21.50;99.90
21001;DHT22;10658;50.920;12.238;2023-07-29T05:21:24;21.90;99.90
21001;DHT22;10658;50.920;12.238;2023-07-29T05:25:25;21.70;99.90
21001;DHT22;10658;50.920;12.238;2023-07-29T05:29:26;21.60;99.90
21001;DHT22;10658;50.920;12.238;2023-07-29T05:33:27;21.60;99.90
21001;DHT22;10658;50.920;12.238;2023-07-29T05:37:28;21.90;99.90
21001;DHT22;10658;50.920;12.238;2023-07-29T05:41:28;21.90;99.90
21001;DHT22;10658;50.920;12.238;2023-07-29T05:45:29;22.10;99.90
21001;DHT22;10658;50.920;12.238;2023-07-29T05:49:31;22.10;99.90
21001;DHT22;10658;50.920;12.238;2023-07-29T05:53:32;22.50;99.90
21001;DHT22;10658;50.920;12.238;2023-07-29T05:57:33;22.70;99.90
21001;DHT22;10658;50.920;12.238;2023-07-29T06:01:34;22.90;99.90
21001;DHT22;10658;50.920;12.238;2023-07-29T06:05:35;22.50;99.90
21001;DHT22;10658;50.920;12.238;2023-07-29T06:09:37;22.00;99.90
21001;DHT22;10658;50.920;12.238;2023-07-29T06:13:38;21.90;99.90
21001;DHT22;10658;50.920;12.238;2023-07-29T06:17:39;21.70;99.90
21001;DHT22;10658;50.920;12.238;2023-07-29T06:21:40;22.00;99.90
21001;DHT22;10658;50.920;12.238;2023-07-29T06:25:40;22.70;99.90
21001;DHT22;10658;50.920;12.238;2023-07-29T06:29:41;23.10;99.90
21001;DHT22;10658;50.920;12.238;2023-07-29T06:33:42;23.10;99.90
21001;DHT22;10658;50.920;12.238;2023-07-29T06:37:43;22.70;99.90
21001;DHT22;10658;50.920;12.238;2023-07-29T06:41:44;22.40;99.90
21001;DHT22;10658;50.920;12.238;2023-07-29T06:45:47;22.30;99.90
21001;DHT22;10658;50.920;12.238;2023-07-29T06:49:48;22.40;99.90
21001;DHT22;10658;50.920;12.238;2023-07-29T06:53:48;22.60;99.90
21001;DHT22;10658;50.920;12.238;2023-07-29T06:57:49;22.70;99.90
21001;DHT22;10658;50.920;12.238;2023-07-29T07:01:50;22.90;99.90
21001;DHT22;10658;50.920;12.238;2023-07-29T07:05:51;22.90;99.90
21001;DHT22;10658;50.920;12.238;2023-07-29T07:09:52;23.20;99.90
21001;DHT22;10658;50.920;12.238;2023-07-29T07:13:53;23.00;99.90
21001;DHT22;10658;50.920;12.238;2023-07-29T07:17:54;23.00;99.90
21001;DHT22;10658;50.920;12.238;2023-07-29T07:21:56;22.90;99.90
21001;DHT22;10658;50.920;12.238;2023-07-29T07:25:57;22.60;99.90
21001;DHT22;10658;50.920;12.238;2023-07-29T07:29:59;22.60;99.90
21001;DHT22;10658;50.920;12.238;2023-07-29T07:34:01;22.70;99.90
21001;DHT22;10658;50.920;12.238;2023-07-29T07:38:05;22.80;99.90
21001;DHT22;10658;50.920;12.238;2023-07-29T07:42:08;22.70;99.90
21001;DHT22;10658;50.920;12.238;2023-07-29T07:46:09;22.80;99.90
21001;DHT22;10658;50.920;12.238;2023-07-29T07:50:11;22.80;99.90
21001;DHT22;10658;50.920;12.238;2023-07-29T07:54:15;23.00;99.90
21001;DHT22;10658;50.920;12.238;2023-07-29T07:58:20;23.30;99.90
21001;DHT22;10658;50.920;12.238;2023-07-29T08:02:22;23.40;99.90
21001;DHT22;10658;50.920;12.238;2023-07-29T08:06:23;23.40;99.90
21001;DHT22;10658;50.920;12.238;2023-07-29T08:10:25;23.70;99.90
21001;DHT22;10658;50.920;12.238;2023-07-29T08:14:26;24.00;99.90
21001;DHT22;10658;50.920;12.238;2023-07-29T08:18:28;24.40;99.90
21001;DHT22;10658;50.920;12.238;2023-07-29T08:22:29;24.70;99.90
21001;DHT22;10658;50.920;12.238;2023-07-29T08:26:30;24.00;99.90
21001;DHT22;10658;50.920;12.238;2023-07-29T08:30:32;23.60;99.90
21001;DHT22;10658;50.920;12.238;2023-07-29T08:34:33;23.70;99.90
21001;DHT22;10658;50.920;12.238;2023-07-29T08:38:35;24.20;99.90
21001;DHT22;10658;50.920;12.238;2023-07-29T08:42:39;24.30;99.90
21001;DHT22;10658;50.920;12.238;2023-07-29T08:46:45;24.30;99.90
21001;DHT22;10658;50.920;12.238;2023-07-29T08:50:48;24.10;99.90
21001;DHT22;10658;50.920;12.238;2023-07-29T08:54:50;24.10;99.90
21001;DHT22;10658;50.920;12.238;2023-07-29T08:58:55;24.00;99.90
21001;DHT22;10658;50.920;12.238;2023-07-29T09:02:57;24.10;99.90
21001;DHT22;10658;50.920;12.238;2023-07-29T09:07:05;24.00;99.90
21001;DHT22;10658;50.920;12.238;2023-07-29T09:11:08;23.60;99.90
21001;DHT22;10658;50.920;12.238;2023-07-29T09:15:10;23.70;99.90
21001;DHT22;10658;50.920;12.238;2023-07-29T09:19:11;23.30;99.90
21001;DHT22;10658;50.920;12.238;2023-07-29T09:23:16;23.40;99.90
21001;DHT22;10658;50.920;12.238;2023-07-29T09:27:27;23.60;99.90
21001;DHT22;10658;50.920;12.238;2023-07-29T09:31:29;23.90;99.90
21001;DHT22;10658;50.920;12.238;2023-07-29T09:35:33;23.90;99.90
21001;DHT22;10658;50.920;12.238;2023-07-29T09:39:34;23.50;99.90
21001;DHT22;10658;50.920;12.238;2023-07-29T09:43:36;23.30;99.90
21001;DHT22;10658;50.920;12.238;2023-07-29T09:47:37;23.20;99.90
21001;DHT22;10658;50.920;12.238;2023-07-29T09:51:38;23.10;99.90
21001;DHT22;10658;50.920;12.238;2023-07-29T09:55:47;23.10;99.90
21001;DHT22;10658;50.920;12.238;2023-07-29T09:59:56;23.20;99.90
21001;DHT22;10658;50.920;12.238;2023-07-29T10:03:57;23.20;99.90
21001;DHT22;10658;50.920;12.238;2023-07-29T10:08:01;23.50;99.90
21001;DHT22;10658;50.920;12.238;2023-07-29T10:12:06;23.60;99.90
21001;DHT22;10658;50.920;12.238;2023-07-29T10:16:08;23.70;99.90
21001;DHT22;10658;50.920;12.238;2023-07-29T10:20:11;23.40;99.90
21001;DHT22;10658;50.920;12.238;2023-07-29T10:24:19;23.20;99.90
21001;DHT22;10658;50.920;12.238;2023-07-29T10:28:59;23.00;99.90
21001;DHT22;10658;50.920;12.238;2023-07-29T10:33:14;22.80;99.90
21001;DHT22;10658;50.920;12.238;2023-07-29T10:37:15;22.80;99.90
21001;DHT22;10658;50.920;12.238;2023-07-29T10:41:16;22.80;99.90
21001;DHT22;10658;50.920;12.238;2023-07-29T10:45:19;22.90;99.90
21001;DHT22;10658;50.920;12.238;2023-07-29T10:49:23;22.90;99.90
21001;DHT22;10658;50.920;12.238;2023-07-29T10:53:30;23.10;99.90
21001;DHT22;10658;50.920;12.238;2023-07-29T11:01:34;23.30;99.90
21001;DHT22;10658;50.920;12.238;2023-07-29T11:05:51;23.30;99.90
21001;DHT22;10658;50.920;12.238;2023-07-29T11:09:58;23.40;99.90
21001;DHT22;10658;50.920;12.238;2023-07-29T11:14:00;23.40;99.90
21001;DHT22;10658;50.920;12.238;2023-07-29T11:18:02;23.40;99.90
21001;DHT22;10658;50.920;12.238;2023-07-29T11:22:03;23.40;99.90
21001;DHT22;10658;50.920;12.238;2023-07-29T11:26:05;23.10;99.90
21001;DHT22;10658;50.920;12.238;2023-07-29T11:30:09;23.10;99.90
21001;DHT22;10658;50.920;12.238;2023-07-29T11:34:11;23.10;99.90
21001;DHT22;10658;50.920;12.238;2023-07-29T11:38:17;23.10;99.90
21001;DHT22;10658;50.920;12.238;2023-07-29T11:42:19;23.10;99.90
21001;DHT22;10658;50.920;12.238;2023-07-29T11:46:22;23.30;99.90
21001;DHT22;10658;50.920;12.238;2023-07-29T11:50:24;24.10;99.90
21001;DHT22;10658;50.920;12.238;2023-07-29T11:54:25;24.50;99.90
21001;DHT22;10658;50.920;12.238;2023-07-29T11:58:26;24.20;99.90
21001;DHT22;10658;50.920;12.238;2023-07-29T12:02:28;23.80;99.90
21001;DHT22;10658;50.920;12.238;2023-07-29T12:06:29;23.70;99.90
21001;DHT22;10658;50.920;12.238;2023-07-29T12:10:32;24.40;99.90
21001;DHT22;10658;50.920;12.238;2023-07-29T12:14:34;25.10;99.90
21001;DHT22;10658;50.920;12.238;2023-07-29T12:18:36;25.70;99.90
21001;DHT22;10658;50.920;12.238;2023-07-29T12:22:37;25.80;99.90
21001;DHT22;10658;50.920;12.238;2023-07-29T12:26:39;25.40;99.90
21001;DHT22;10658;50.920;12.238;2023-07-29T12:30:43;25.70;99.90
21001;DHT22;10658;50.920;12.238;2023-07-29T12:34:44;26.10;99.90
21001;DHT22;10658;50.920;12.238;2023-07-29T12:38:46;25.90;99.90
21001;DHT22;10658;50.920;12.238;2023-07-29T12:42:47;25.90;99.90
21001;DHT22;10658;50.920;12.238;2023-07-29T12:46:48;26.40;99.90
21001;DHT22;10658;50.920;12.238;2023-07-29T12:50:50;26.70;99.90
21001;DHT22;10658;50.920;12.238;2023-07-29T12:54:52;26.50;99.90
21001;DHT22;10658;50.920;12.238;2023-07-29T12:58:54;26.10;99.90
21001;DHT22;10658;50.920;12.238;2023-07-29T13:02:55;26.00;99.90
21001;DHT22;10658;50.920;12.238;2023-07-29T13:06:56;25.50;99.90
21001;DHT22;10658;50.920;12.238;2023-07-29T13:11:00;26.00;99.90
21001;DHT22;10658;50.920;12.238;2023-07-29T13:15:01;26.60;99.90
21001;DHT22;10658;50.920;12.238;2023-07-29T13:19:02;26.60;99.90
21001;DHT22;10658;50.920;12.238;2023-07-29T13:23:03;26.40;99.90
21001;DHT22;10658;50.920;12.238;2023-07-29T13:27:05;26.80;99.90
21001;DHT22;10658;50.920;12.238;2023-07-29T13:31:06;26.70;99.90
21001;DHT22;10658;50.920;12.238;2023-07-29T13:35:08;26.00;99.90
21001;DHT22;10658;50.920;12.238;2023-07-29T13:39:09;26.30;99.90
21001;DHT22;10658;50.920;12.238;2023-07-29T13:43:10;25.70;99.90
21001;DHT22;10658;50.920;12.238;2023-07-29T13:47:11;25.80;99.90
21001;DHT22;10658;50.920;12.238;2023-07-29T13:51:12;25.70;99.90
21001;DHT22;10658;50.920;12.238;2023-07-29T13:55:13;25.60;99.90
21001;DHT22;10658;50.920;12.238;2023-07-29T13:59:14;25.80;99.90
21001;DHT22;10658;50.920;12.238;2023-07-29T14:03:15;26.20;99.90
21001;DHT22;10658;50.920;12.238;2023-07-29T14:07:16;26.90;99.90
21001;DHT22;10658;50.920;12.238;2023-07-29T14:11:17;26.70;99.90
21001;DHT22;10658;50.920;12.238;2023-07-29T14:15:19;26.80;99.90
21001;DHT22;10658;50.920;12.238;2023-07-29T14:19:20;27.60;99.90
21001;DHT22;10658;50.920;12.238;2023-07-29T14:23:21;28.00;99.90
21001;DHT22;10658;50.920;12.238;2023-07-29T14:27:23;28.50;99.90
21001;DHT22;10658;50.920;12.238;2023-07-29T14:31:26;28.30;99.90
21001;DHT22;10658;50.920;12.238;2023-07-29T14:35:28;27.60;99.90
21001;DHT22;10658;50.920;12.238;2023-07-29T14:39:29;27.60;99.90
21001;DHT22;10658;50.920;12.238;2023-07-29T14:43:31;27.00;99.90
21001;DHT22;10658;50.920;12.238;2023-07-29T14:47:32;26.50;99.90
21001;DHT22;10658;50.920;12.238;2023-07-29T14:51:35;25.90;99.90
21001;DHT22;10658;50.920;12.238;2023-07-29T14:55:37;25.60;99.90
21001;DHT22;10658;50.920;12.238;2023-07-29T14:59:39;25.30;99.90
21001;DHT22;10658;50.920;12.238;2023-07-29T15:03:40;25.10;99.90
21001;DHT22;10658;50.920;12.238;2023-07-29T15:07:41;24.90;99.90
21001;DHT22;10658;50.920;12.238;2023-07-29T15:11:42;24.80;99.90
21001;DHT22;10658;50.920;12.238;2023-07-29T15:15:44;24.60;99.90
21001;DHT22;10658;50.920;12.238;2023-07-29T15:19:45;24.30;99.90
21001;DHT22;10658;50.920;12.238;2023-07-29T15:23:50;22.70;99.90
21001;DHT22;10658;50.920;12.238;2023-07-29T15:27:52;20.50;99.90
21001;DHT22;10658;50.920;12.238;2023-07-29T15:31:53;19.70;99.90
21001;DHT22;10658;50.920;12.238;2023-07-29T15:35:54;19.50;99.90
21001;DHT22;10658;50.920;12.238;2023-07-29T15:39:56;19.40;99.90
21001;DHT22;10658;50.920;12.238;2023-07-29T15:43:57;19.40;99.90
21001;DHT22;10658;50.920;12.238;2023-07-29T15:47:58;19.40;99.90
21001;DHT22;10658;50.920;12.238;2023-07-29T15:51:59;19.60;99.90
21001;DHT22;10658;50.920;12.238;2023-07-29T15:56:02;19.80;99.90
21001;DHT22;10658;50.920;12.238;2023-07-29T16:00:11;20.10;99.90
21001;DHT22;10658;50.920;12.238;2023-07-29T16:04:13;20.00;99.90
21001;DHT22;10658;50.920;12.238;2023-07-29T16:08:18;20.00;99.90
21001;DHT22;10658;50.920;12.238;2023-07-29T16:12:21;20.20;99.90
21001;DHT22;10658;50.920;12.238;2023-07-29T16:16:28;20.20;99.90
21001;DHT22;10658;50.920;12.238;2023-07-29T16:20:31;20.30;99.90
21001;DHT22;10658;50.920;12.238;2023-07-29T16:24:37;20.30;99.90
21001;DHT22;10658;50.920;12.238;2023-07-29T16:28:40;20.10;99.90
21001;DHT22;10658;50.920;12.238;2023-07-29T16:32:42;20.40;99.90
21001;DHT22;10658;50.920;12.238;2023-07-29T16:36:43;21.10;99.90
21001;DHT22;10658;50.920;12.238;2023-07-29T16:40:44;21.90;99.90
21001;DHT22;10658;50.920;12.238;2023-07-29T16:44:46;22.50;99.90
21001;DHT22;10658;50.920;12.238;2023-07-29T16:48:48;23.00;99.90
21001;DHT22;10658;50.920;12.238;2023-07-29T16:52:49;23.20;99.90
21001;DHT22;10658;50.920;12.238;2023-07-29T16:56:54;23.20;99.90
21001;DHT22;10658;50.920;12.238;2023-07-29T17:00:55;22.60;99.90
21001;DHT22;10658;50.920;12.238;2023-07-29T17:04:57;22.00;99.90
21001;DHT22;10658;50.920;12.238;2023-07-29T17:08:58;21.20;99.90
21001;DHT22;10658;50.920;12.238;2023-07-29T17:12:59;20.80;99.90
21001;DHT22;10658;50.920;12.238;2023-07-29T17:17:00;20.70;99.90
21001;DHT22;10658;50.920;12.238;2023-07-29T17:21:02;20.60;99.90
21001;DHT22;10658;50.920;12.238;2023-07-29T17:25:03;20.50;99.90
21001;DHT22;10658;50.920;12.238;2023-07-29T17:29:05;20.40;99.90
21001;DHT22;10658;50.920;12.238;2023-07-29T17:33:06;20.40;99.90
21001;DHT22;10658;50.920;12.238;2023-07-29T17:37:07;20.30;99.90
21001;DHT22;10658;50.920;12.238;2023-07-29T17:41:08;20.30;99.90
21001;DHT22;10658;50.920;12.238;2023-07-29T17:45:09;20.30;99.90
21001;DHT22;10658;50.920;12.238;2023-07-29T17:49:10;20.30;99.90
21001;DHT22;10658;50.920;12.238;2023-07-29T17:53:12;20.30;99.90
21001;DHT22;10658;50.920;12.238;2023-07-29T17:57:13;20.20;99.90
21001;DHT22;10658;50.920;12.238;2023-07-29T18:01:14;20.10;99.90
21001;DHT22;10658;50.920;12.238;2023-07-29T18:05:15;20.10;99.90
21001;DHT22;10658;50.920;12.238;2023-07-29T18:09:17;20.00;99.90
21001;DHT22;10658;50.920;12.238;2023-07-29T18:13:18;19.80;99.90
21001;DHT22;10658;50.920;12.238;2023-07-29T18:17:21;19.70;99.90
21001;DHT22;10658;50.920;12.238;2023-07-29T18:21:22;19.60;99.90
21001;DHT22;10658;50.920;12.238;2023-07-29T18:25:24;19.50;99.90
21001;DHT22;10658;50.920;12.238;2023-07-29T18:29:25;19.40;99.90
21001;DHT22;10658;50.920;12.238;2023-07-29T18:33:26;19.30;99.90
21001;DHT22;10658;50.920;12.238;2023-07-29T18:37:27;19.20;99.90
21001;DHT22;10658;50.920;12.238;2023-07-29T18:41:28;19.10;99.90
21001;DHT22;10658;50.920;12.238;2023-07-29T18:45:32;19.10;99.90
21001;DHT22;10658;50.920;12.238;2023-07-29T18:49:33;19.10;99.90
21001;DHT22;10658;50.920;12.238;2023-07-29T18:53:35;19.00;99.90
21001;DHT22;10658;50.920;12.238;2023-07-29T18:57:36;19.00;99.90
21001;DHT22;10658;50.920;12.238;2023-07-29T19:01:37;18.80;99.90
21001;DHT22;10658;50.920;12.238;2023-07-29T19:05:38;18.80;99.90
21001;DHT22;10658;50.920;12.238;2023-07-29T19:09:43;18.70;99.90
21001;DHT22;10658;50.920;12.238;2023-07-29T19:13:45;18.40;99.90
21001;DHT22;10658;50.920;12.238;2023-07-29T19:17:46;18.10;99.90
21001;DHT22;10658;50.920;12.238;2023-07-29T19:21:47;18.00;99.90
21001;DHT22;10658;50.920;12.238;2023-07-29T19:25:50;17.90;99.90
21001;DHT22;10658;50.920;12.238;2023-07-29T19:29:51;17.80;99.90
21001;DHT22;10658;50.920;12.238;2023-07-29T19:33:52;17.90;99.90
21001;DHT22;10658;50.920;12.238;2023-07-29T19:37:55;18.00;99.90
21001;DHT22;10658;50.920;12.238;2023-07-29T19:41:56;18.10;99.90
21001;DHT22;10658;50.920;12.238;2023-07-29T19:45:58;18.20;99.90
21001;DHT22;10658;50.920;12.238;2023-07-29T19:49:59;18.20;99.90
21001;DHT22;10658;50.920;12.238;2023-07-29T19:54:00;18.10;99.90
21001;DHT22;10658;50.920;12.238;2023-07-29T19:58:01;18.10;99.90
21001;DHT22;10658;50.920;12.238;2023-07-29T20:02:02;18.10;99.90
21001;DHT22;10658;50.920;12.238;2023-07-29T20:06:03;18.00;99.90
21001;DHT22;10658;50.920;12.238;2023-07-29T20:10:06;17.90;99.90
21001;DHT22;10658;50.920;12.238;2023-07-29T20:14:07;17.80;99.90
21001;DHT22;10658;50.920;12.238;2023-07-29T20:18:08;17.70;99.90
21001;DHT22;10658;50.920;12.238;2023-07-29T20:22:08;17.80;99.90
21001;DHT22;10658;50.920;12.238;2023-07-29T20:26:09;17.70;99.90
21001;DHT22;10658;50.920;12.238;2023-07-29T20:30:10;17.70;99.90
21001;DHT22;10658;50.920;12.238;2023-07-29T20:34:11;17.70;99.90
21001;DHT22;10658;50.920;12.238;2023-07-29T20:38:12;17.50;99.90
21001;DHT22;10658;50.920;12.238;2023-07-29T20:42:12;17.50;99.90
21001;DHT22;10658;50.920;12.238;2023-07-29T20:46:20;17.50;99.90
21001;DHT22;10658;50.920;12.238;2023-07-29T20:50:21;17.40;99.90
21001;DHT22;10658;50.920;12.238;2023-07-29T20:54:23;17.30;99.90
21001;DHT22;10658;50.920;12.238;2023-07-29T20:58:24;17.40;99.90
21001;DHT22;10658;50.920;12.238;2023-07-29T21:02:25;17.40;99.90
21001;DHT22;10658;50.920;12.238;2023-07-29T21:06:26;17.30;99.90
21001;DHT22;10658;50.920;12.238;2023-07-29T21:10:26;17.30;99.90
21001;DHT22;10658;50.920;12.238;2023-07-29T21:14:27;17.30;99.90
21001;DHT22;10658;50.920;12.238;2023-07-29T21:18:28;17.30;99.90
21001;DHT22;10658;50.920;12.238;2023-07-29T21:22:29;17.20;99.90
21001;DHT22;10658;50.920;12.238;2023-07-29T21:26:30;17.20;99.90
21001;DHT22;10658;50.920;12.238;2023-07-29T21:30:31;17.20;99.90
21001;DHT22;10658;50.920;12.238;2023-07-29T21:34:32;17.20;99.90
21001;DHT22;10658;50.920;12.238;2023-07-29T21:38:32;17.20;99.90
21001;DHT22;10658;50.920;12.238;2023-07-29T21:42:33;17.20;99.90
21001;DHT22;10658;50.920;12.238;2023-07-29T21:46:34;17.20;99.90
21001;DHT22;10658;50.920;12.238;2023-07-29T21:50:35;17.20;99.90
21001;DHT22;10658;50.920;12.238;2023-07-29T21:54:35;17.00;99.90
21001;DHT22;10658;50.920;12.238;2023-07-29T21:58:36;16.90;99.90
21001;DHT22;10658;50.920;12.238;2023-07-29T22:02:37;16.90;99.90
21001;DHT22;10658;50.920;12.238;2023-07-29T22:06:38;16.80;99.90
21001;DHT22;10658;50.920;12.238;2023-07-29T22:10:39;16.60;99.90
21001;DHT22;10658;50.920;12.238;2023-07-29T22:14:40;16.60;99.90
21001;DHT22;10658;50.920;12.238;2023-07-29T22:18:43;16.70;99.90
21001;DHT22;10658;50.920;12.238;2023-07-29T22:22:43;16.70;99.90
21001;DHT22;10658;50.920;12.238;2023-07-29T22:26:44;16.80;99.90
21001;DHT22;10658;50.920;12.238;2023-07-29T22:30:45;16.70;99.90
21001;DHT22;10658;50.920;12.238;2023-07-29T22:34:46;16.50;99.90
21001;DHT22;10658;50.920;12.238;2023-07-29T22:38:46;16.40;99.90
21001;DHT22;10658;50.920;12.238;2023-07-29T22:42:47;16.40;99.90
21001;DHT22;10658;50.920;12.238;2023-07-29T22:46:48;16.50;99.90
21001;DHT22;10658;50.920;12.238;2023-07-29T22:50:49;16.50;99.90
21001;DHT22;10658;50.920;12.238;2023-07-29T22:54:50;16.50;99.90
21001;DHT22;10658;50.920;12.238;2023-07-29T22:58:51;16.60;99.90
21001;DHT22;10658;50.920;12.238;2023-07-29T23:02:51;16.60;99.90
21001;DHT22;10658;50.920;12.238;2023-07-29T23:06:52;16.60;99.90
21001;DHT22;10658;50.920;12.238;2023-07-29T23:10:53;16.70;99.90
21001;DHT22;10658;50.920;12.238;2023-07-29T23:14:54;16.60;99.90
21001;DHT22;10658;50.920;12.238;2023-07-29T23:18:55;16.70;99.90
21001;DHT22;10658;50.920;12.238;2023-07-29T23:22:55;16.80;99.90
21001;DHT22;10658;50.920;12.238;2023-07-29T23:26:56;16.60;99.90
21001;DHT22;10658;50.920;12.238;2023-07-29T23:30:57;16.60;99.90
21001;DHT22;10658;50.920;12.238;2023-07-29T23:34:58;16.60;99.90
21001;DHT22;10658;50.920;12.238;2023-07-29T23:38:59;16.60;99.90
21001;DHT22;10658;50.920;12.238;2023-07-29T23:43:00;16.60;99.90
21001;DHT22;10658;50.920;12.238;2023-07-29T23:47:00;16.60;99.90
21001;DHT22;10658;50.920;12.238;2023-07-29T23:51:03;16.60;99.90
21001;DHT22;10658;50.920;12.238;2023-07-29T23:55:04;16.60;99.90
21001;DHT22;10658;50.920;12.238;2023-07-29T23:59:05;16.60;99.90
